Time;durP1;ratioP1;P1;durP2;ratioP2;P2;SDS_P1;SDS_P2;PMS_P1;PMS_P2;Temp;Humidity;BMP_temperature;BMP_pressure;BME280_temperature;BME280_humidity;BME280_pressure;Samples;Min_cycle;Max_cycle;Signal;HPM_P1;HPM_P2
2023/08/19 00:00:26;;;;;;;2.53;1.80;;;;;;;21.54;100.00;97250.25;5092608;28;20486;-73
2023/08/19 00:02:52;;;;;;;1.85;1.52;;;;;;;21.51;100.00;97248.97;5092766;28;20390;-73
2023/08/19 00:05:18;;;;;;;2.20;1.83;;;;;;;21.47;100.00;97249.97;5092838;28;20421;-73
2023/08/19 00:07:47;;;;;;;2.08;1.88;;;;;;;21.45;100.00;97249.47;5092700;28;20402;-73
2023/08/19 00:10:13;;;;;;;2.37;1.70;;;;;;;21.42;100.00;97244.75;5092666;28;20393;-73
2023/08/19 00:12:39;;;;;;;1.92;1.65;;;;;;;21.39;100.00;97248.88;5092592;28;20742;-73
2023/08/19 00:15:07;;;;;;;3.35;2.33;;;;;;;21.37;100.00;97247.63;5092526;28;20397;-73
2023/08/19 00:17:33;;;;;;;2.83;1.90;;;;;;;21.32;100.00;97243.22;5092911;28;20752;-73
2023/08/19 00:20:00;;;;;;;2.53;1.90;;;;;;;21.28;100.00;97247.66;5092244;28;20454;-73
2023/08/19 00:22:26;;;;;;;2.25;1.90;;;;;;;21.25;100.00;97242.94;5092353;28;20402;-72
2023/08/19 00:24:54;;;;;;;2.70;2.10;;;;;;;21.22;100.00;97235.50;5092336;28;20466;-72
2023/08/19 00:27:20;;;;;;;3.53;2.00;;;;;;;21.19;100.00;97236.94;5092260;28;20784;-73
2023/08/19 00:29:46;;;;;;;3.85;2.00;;;;;;;21.17;100.00;97241.06;5092126;28;20422;-73
2023/08/19 00:32:12;;;;;;;3.33;2.15;;;;;;;21.14;100.00;97239.75;5092272;28;20493;-73
2023/08/19 00:34:39;;;;;;;2.08;1.70;;;;;;;21.11;100.00;97232.34;5092158;28;20398;-73
2023/08/19 00:37:07;;;;;;;2.40;1.90;;;;;;;21.11;100.00;97239.63;5092027;28;20973;-73
2023/08/19 00:39:33;;;;;;;2.00;1.77;;;;;;;21.07;100.00;97234.09;5091977;28;20413;-72
2023/08/19 00:42:00;;;;;;;3.47;2.00;;;;;;;21.05;100.00;97247.06;5072427;28;20929;-73
2023/08/19 00:44:27;;;;;;;2.57;1.87;;;;;;;21.01;100.00;97240.75;5091959;28;20398;-73
2023/08/19 00:46:53;;;;;;;3.55;2.05;;;;;;;20.99;100.00;97239.50;5091865;28;20433;-73
2023/08/19 00:49:20;;;;;;;3.67;2.20;;;;;;;20.98;100.00;97246.00;5091752;28;20426;-73
2023/08/19 00:51:47;;;;;;;4.00;1.83;;;;;;;20.95;100.00;97246.66;5091576;28;20830;-74
2023/08/19 00:54:13;;;;;;;2.60;2.00;;;;;;;20.93;100.00;97246.97;5092050;28;20481;-73
2023/08/19 00:56:40;;;;;;;4.13;2.28;;;;;;;20.89;100.00;97254.09;5091559;28;20760;-74
2023/08/19 00:59:07;;;;;;;5.50;2.40;;;;;;;20.86;100.00;97258.22;5091457;28;20433;-73
2023/08/19 01:01:33;;;;;;;4.20;2.20;;;;;;;20.82;100.00;97251.88;5091542;28;20494;-72
2023/08/19 01:04:00;;;;;;;2.55;2.00;;;;;;;20.79;100.00;97252.53;5091621;28;20524;-73
2023/08/19 01:06:29;;;;;;;2.95;1.95;;;;;;;20.77;100.00;97251.28;5091496;28;20394;-73
2023/08/19 01:09:11;;;;;;;3.20;2.15;;;;;;;20.77;100.00;97251.28;5091451;28;20883;-71
2023/08/19 01:11:53;;;;;;;2.83;2.10;;;;;;;20.76;100.00;97247.78;5073226;28;20471;-74
2023/08/19 01:14:36;;;;;;;4.43;2.25;;;;;;;20.76;100.00;97244.31;5091461;28;20405;-74
2023/08/19 01:17:04;;;;;;;5.03;2.40;;;;;;;20.72;100.00;97243.38;5091301;28;20488;-73
2023/08/19 01:19:32;;;;;;;3.57;2.07;;;;;;;20.69;100.00;97242.09;5091145;28;20459;-73
2023/08/19 01:22:03;;;;;;;5.28;2.38;;;;;;;20.65;100.00;97240.38;5091155;28;20394;-73
2023/08/19 01:24:36;;;;;;;5.10;2.60;;;;;;;20.61;100.00;97237.53;5091263;28;20398;-73
2023/08/19 01:27:03;;;;;;;2.55;1.98;;;;;;;20.58;100.00;97235.50;5091244;28;20482;-73
2023/08/19 01:29:29;;;;;;;3.50;2.25;;;;;;;20.55;100.00;97233.44;5091032;28;20455;-73
2023/08/19 01:31:56;;;;;;;3.10;2.15;;;;;;;20.53;100.00;97234.84;5090959;28;20459;-73
2023/08/19 01:34:24;;;;;;;2.60;1.80;;;;;;;20.51;100.00;97229.03;5091067;28;20406;-73
2023/08/19 01:36:56;;;;;;;3.00;2.20;;;;;;;20.47;100.00;97229.66;5091098;28;20413;-73
2023/08/19 01:39:24;;;;;;;2.22;2.00;;;;;;;20.44;100.00;97227.63;5090758;28;20398;-73
2023/08/19 01:41:52;;;;;;;3.83;2.08;;;;;;;20.42;100.00;97226.34;5090747;28;20402;-73
2023/08/19 01:44:19;;;;;;;4.53;2.30;;;;;;;20.40;100.00;97236.63;5090858;28;20409;-73
2023/08/19 01:46:45;;;;;;;4.30;2.00;;;;;;;20.36;100.00;97233.78;5090759;28;20488;-73
2023/08/19 01:49:11;;;;;;;4.68;2.15;;;;;;;20.34;100.00;97230.63;5090679;28;20406;-73
2023/08/19 01:51:37;;;;;;;4.57;2.20;;;;;;;20.32;100.00;97232.00;5090718;28;20767;-73
2023/08/19 01:54:04;;;;;;;2.38;2.00;;;;;;;20.33;100.00;97238.97;5090325;28;20447;-73
2023/08/19 01:56:30;;;;;;;1.88;1.50;;;;;;;20.30;100.00;97236.91;5090490;28;20416;-73
2023/08/19 01:58:58;;;;;;;3.00;1.90;;;;;;;20.27;100.00;97235.66;5090211;28;20402;-73
2023/08/19 02:01:25;;;;;;;3.28;1.90;;;;;;;20.26;100.00;97235.97;5090488;28;20420;-72
2023/08/19 02:03:53;;;;;;;2.13;1.67;;;;;;;20.23;100.00;97233.91;5089941;28;21290;-73
2023/08/19 02:06:19;;;;;;;2.90;1.88;;;;;;;20.20;100.00;97229.97;5090518;28;20402;-73
2023/08/19 02:08:45;;;;;;;2.88;1.70;;;;;;;20.17;100.00;97233.28;5090639;28;21114;-73
2023/08/19 02:11:11;;;;;;;1.98;1.60;;;;;;;20.15;100.00;97240.09;5070175;28;20399;-73
2023/08/19 02:13:37;;;;;;;2.95;2.00;;;;;;;20.14;100.00;97239.28;5070340;28;20407;-74
2023/08/19 02:16:05;;;;;;;2.53;2.10;;;;;;;20.11;100.00;97239.91;5070121;28;20435;-74
2023/08/19 02:18:31;;;;;;;3.65;2.22;;;;;;;20.08;100.00;97244.00;5070256;28;20785;-73
2023/08/19 02:20:57;;;;;;;5.53;1.92;;;;;;;20.07;100.00;97239.75;5069913;28;20412;-73
2023/08/19 02:23:23;;;;;;;3.70;2.00;;;;;;;20.06;100.00;97237.41;5070099;28;20399;-73
2023/08/19 02:25:51;;;;;;;2.80;2.30;;;;;;;20.03;100.00;97241.50;5070219;28;20415;-72
2023/08/19 02:28:18;;;;;;;2.95;2.08;;;;;;;20.01;100.00;97241.00;5070236;28;20453;-74
2023/08/19 02:30:44;;;;;;;4.88;1.90;;;;;;;19.97;100.00;97242.75;5069887;28;20399;-73
2023/08/19 02:33:11;;;;;;;2.83;2.10;;;;;;;19.94;100.00;97243.38;5070008;28;20495;-73
2023/08/19 02:35:38;;;;;;;2.80;2.00;;;;;;;19.91;100.00;97245.91;5070085;28;20395;-73
2023/08/19 02:38:04;;;;;;;4.60;2.00;;;;;;;19.90;100.00;97241.63;5069955;28;20453;-73
2023/08/19 02:40:31;;;;;;;2.92;2.30;;;;;;;19.87;100.00;97234.19;5069857;28;20814;-73
2023/08/19 02:42:57;;;;;;;3.20;2.20;;;;;;;19.87;100.00;97235.00;5069892;28;20460;-74
2023/08/19 02:45:25;;;;;;;3.35;2.05;;;;;;;19.84;100.00;97238.31;5070042;28;20400;-73
2023/08/19 02:47:51;;;;;;;3.58;2.30;;;;;;;19.82;100.00;97234.34;5069977;28;20392;-73
2023/08/19 02:50:18;;;;;;;3.03;2.13;;;;;;;19.80;100.00;97234.66;5069876;28;20391;-73
2023/08/19 02:52:45;;;;;;;2.78;2.30;;;;;;;19.79;100.00;97234.97;5069780;28;20399;-73
2023/08/19 02:55:11;;;;;;;1.90;1.67;;;;;;;19.78;100.00;97236.88;5069922;28;20400;-73
2023/08/19 02:57:37;;;;;;;3.57;1.90;;;;;;;19.77;100.00;97226.47;5069995;28;20431;-73
2023/08/19 03:00:04;;;;;;;2.67;2.05;;;;;;;19.75;100.00;97237.50;5051713;28;20468;-72
2023/08/19 03:02:30;;;;;;;2.70;2.05;;;;;;;19.71;100.00;97239.22;5069751;28;20457;-73
2023/08/19 03:04:57;;;;;;;2.73;2.10;;;;;;;19.68;100.00;97237.19;5070541;28;20822;-72
2023/08/19 03:07:24;;;;;;;3.38;2.08;;;;;;;19.65;100.00;97243.16;5073610;28;20404;-73
2023/08/19 03:09:50;;;;;;;3.20;2.05;;;;;;;19.64;100.00;97247.75;5073316;28;20403;-73
2023/08/19 03:12:16;;;;;;;2.97;2.10;;;;;;;19.61;100.00;97240.34;5073478;28;20494;-73
2023/08/19 03:14:43;;;;;;;2.88;2.15;;;;;;;19.61;100.00;97245.72;5073497;28;20474;-73
2023/08/19 03:17:09;;;;;;;3.70;2.13;;;;;;;19.59;100.00;97244.44;5073355;28;20477;-73
2023/08/19 03:19:35;;;;;;;3.20;2.10;;;;;;;19.57;100.00;97243.94;5073178;28;20425;-73
2023/08/19 03:22:01;;;;;;;6.53;2.67;;;;;;;19.53;100.00;97243.78;5073398;28;20884;-73
2023/08/19 03:24:29;;;;;;;2.50;2.13;;;;;;;19.51;100.00;97243.28;5073467;28;20453;-73
2023/08/19 03:26:55;;;;;;;2.95;2.00;;;;;;;19.47;100.00;97245.00;5073485;28;20486;-73
2023/08/19 03:29:23;;;;;;;2.70;2.20;;;;;;;19.45;100.00;97236.47;5073091;28;20488;-73
2023/08/19 03:31:49;;;;;;;4.40;2.38;;;;;;;19.44;100.00;97242.13;5073072;28;20762;-74
2023/08/19 03:34:15;;;;;;;2.22;2.03;;;;;;;19.41;100.00;97232.81;5073227;28;20521;-73
2023/08/19 03:36:41;;;;;;;4.20;2.38;;;;;;;19.41;100.00;97237.38;5073126;28;20410;-73
2023/08/19 03:39:07;;;;;;;2.90;1.85;;;;;;;19.41;100.00;97237.38;5072917;28;20796;-73
2023/08/19 03:41:35;;;;;;;3.78;2.67;;;;;;;19.39;100.00;97243.09;5072950;28;20415;-73
2023/08/19 03:44:02;;;;;;;3.00;2.17;;;;;;;19.37;100.00;97242.59;5072892;28;20408;-73
2023/08/19 03:46:28;;;;;;;2.30;2.00;;;;;;;19.36;100.00;97234.84;5072899;28;20493;-73
2023/08/19 03:48:54;;;;;;;2.83;2.13;;;;;;;19.33;100.00;97239.72;5072761;28;20482;-73
2023/08/19 03:51:20;;;;;;;3.03;2.20;;;;;;;19.32;100.00;97238.13;5072650;28;20761;-73
2023/08/19 03:53:46;;;;;;;2.60;2.00;;;;;;;19.30;100.00;97235.00;5072686;28;20515;-73
2023/08/19 03:56:13;;;;;;;2.20;2.00;;;;;;;19.28;100.00;97233.72;5072651;28;20457;-73
2023/08/19 03:58:40;;;;;;;2.47;2.08;;;;;;;19.25;100.00;97232.44;5072775;28;20921;-72
2023/08/19 04:01:07;;;;;;;3.42;2.17;;;;;;;19.24;100.00;97230.09;5072294;28;20420;-73
2023/08/19 04:03:34;;;;;;;2.63;1.90;;;;;;;19.22;100.00;97227.69;5072679;28;20400;-73
2023/08/19 04:06:00;;;;;;;2.13;1.90;;;;;;;19.20;100.00;97235.25;5072452;28;20404;-73
2023/08/19 04:08:26;;;;;;;2.20;2.00;;;;;;;19.20;100.00;97239.84;5072504;28;20408;-73
2023/08/19 04:10:52;;;;;;;2.10;1.90;;;;;;;19.19;100.00;97239.03;5072178;28;20489;-73
2023/08/19 04:13:19;;;;;;;3.17;2.10;;;;;;;19.19;100.00;97230.19;5072438;28;20438;-73
2023/08/19 04:15:46;;;;;;;2.92;2.00;;;;;;;19.18;100.00;97233.97;5072160;28;20400;-72
2023/08/19 04:18:12;;;;;;;4.43;2.13;;;;;;;19.17;100.00;97230.50;5072372;28;20403;-72
2023/08/19 04:20:39;;;;;;;3.40;2.30;;;;;;;19.17;100.00;97243.16;5072096;28;20412;-73
2023/08/19 04:23:06;;;;;;;2.72;2.05;;;;;;;19.17;100.00;97237.78;5072137;28;20424;-73
2023/08/19 04:25:32;;;;;;;2.20;1.90;;;;;;;19.18;100.00;97244.72;5072292;28;20410;-73
2023/08/19 04:27:58;;;;;;;1.90;1.63;;;;;;;19.19;100.00;97240.94;5072233;28;20484;-73
2023/08/19 04:30:24;;;;;;;2.15;1.95;;;;;;;19.18;100.00;97242.81;5071903;28;20893;-73
2023/08/19 04:32:52;;;;;;;2.20;1.90;;;;;;;19.19;100.00;97241.72;5071996;28;20427;-73
2023/08/19 04:35:18;;;;;;;2.92;2.00;;;;;;;19.19;100.00;97252.47;5071959;28;20403;-73
2023/08/19 04:37:44;;;;;;;2.92;2.13;;;;;;;19.18;100.00;97250.88;5071925;28;20816;-73
2023/08/19 04:40:11;;;;;;;3.72;2.38;;;;;;;19.18;100.00;97255.44;5071748;28;20407;-73
2023/08/19 04:42:37;;;;;;;2.57;2.00;;;;;;;19.17;100.00;97251.97;5072000;28;20402;-73
2023/08/19 04:45:05;;;;;;;2.25;1.73;;;;;;;19.16;100.00;97250.41;5071752;28;20408;-73
2023/08/19 04:47:33;;;;;;;3.95;2.17;;;;;;;19.15;100.00;97246.16;5071751;28;20396;-73
2023/08/19 04:50:00;;;;;;;3.60;1.80;;;;;;;19.15;100.00;97256.88;5071549;28;20409;-73
2023/08/19 04:52:27;;;;;;;5.30;2.00;;;;;;;19.15;100.00;97262.25;5071750;28;20533;-73
2023/08/19 04:54:53;;;;;;;2.47;2.03;;;;;;;19.16;100.00;97261.16;5071507;28;20404;-73
2023/08/19 04:57:19;;;;;;;2.67;1.95;;;;;;;19.16;100.00;97255.00;5071532;28;20408;-73
2023/08/19 04:59:45;;;;;;;2.87;1.93;;;;;;;19.16;100.00;97263.84;5071378;28;20452;-73
2023/08/19 05:02:11;;;;;;;2.47;2.15;;;;;;;19.16;100.00;97261.16;5071371;28;20862;-73
2023/08/19 05:04:38;;;;;;;2.80;2.20;;;;;;;19.17;100.00;97260.03;5071368;28;20533;-73
2023/08/19 05:07:05;;;;;;;2.83;2.20;;;;;;;19.19;100.00;97265.09;5071385;28;20400;-73
2023/08/19 05:09:31;;;;;;;4.25;2.08;;;;;;;19.21;100.00;97276.31;5071229;28;20739;-73
2023/08/19 05:11:57;;;;;;;2.85;2.15;;;;;;;19.22;100.00;97267.16;5071250;28;20772;-73
2023/08/19 05:14:25;;;;;;;3.60;2.20;;;;;;;19.24;100.00;97268.44;5070977;28;20404;-73
2023/08/19 05:16:51;;;;;;;3.05;2.10;;;;;;;19.27;100.00;97275.06;5071070;28;20453;-73
2023/08/19 05:19:19;;;;;;;3.43;2.30;;;;;;;19.30;100.00;97271.78;5071062;28;20726;-73
2023/08/19 05:21:46;;;;;;;2.42;2.15;;;;;;;19.34;100.00;97272.72;5070935;28;20419;-73
2023/08/19 05:24:14;;;;;;;3.03;2.33;;;;;;;19.39;100.00;97274.50;5071123;28;20427;-73
2023/08/19 05:26:42;;;;;;;3.10;2.00;;;;;;;19.44;100.00;97274.34;5070993;28;20411;-73
2023/08/19 05:29:08;;;;;;;2.63;1.98;;;;;;;19.52;100.00;97274.41;5070201;28;20401;-73
2023/08/19 05:31:34;;;;;;;2.00;1.80;;;;;;;19.61;100.00;97271.75;5070970;28;20835;-73
2023/08/19 05:34:00;;;;;;;2.42;1.75;;;;;;;19.71;100.00;97276.81;5070716;28;20412;-73
2023/08/19 05:36:27;;;;;;;2.08;1.60;;;;;;;19.80;100.00;97271.47;5070962;28;20400;-72
2023/08/19 05:38:53;;;;;;;1.88;1.58;;;;;;;19.90;100.00;97271.19;5080147;28;20402;-73
2023/08/19 05:41:20;;;;;;;2.17;1.60;;;;;;;20.00;100.00;97276.25;5090870;28;20421;-73
2023/08/19 05:43:46;;;;;;;2.03;1.77;;;;;;;20.09;100.00;97279.75;5090914;28;20398;-73
2023/08/19 05:46:13;;;;;;;1.80;1.60;;;;;;;20.16;100.00;97274.69;5091034;28;20919;-73
2023/08/19 05:48:39;;;;;;;2.33;1.95;;;;;;;20.22;100.00;97276.13;5090983;28;20401;-73
2023/08/19 05:51:05;;;;;;;2.97;2.15;;;;;;;20.29;100.00;97283.72;5090689;28;20390;-73
2023/08/19 05:53:31;;;;;;;2.20;1.70;;;;;;;20.34;100.00;97287.06;5090910;28;20402;-73
2023/08/19 05:55:57;;;;;;;2.83;1.95;;;;;;;20.37;100.00;97288.34;5090790;28;20405;-73
2023/08/19 05:58:25;;;;;;;2.70;1.90;;;;;;;20.42;100.00;97294.34;5090887;28;20820;-73
2023/08/19 06:00:57;;;;;;;3.35;2.05;;;;;;;20.47;100.00;97291.50;5090394;28;20422;-73
2023/08/19 06:03:24;;;;;;;2.28;1.95;;;;;;;20.53;100.00;97294.00;5090758;28;20431;-73
2023/08/19 06:05:50;;;;;;;1.88;1.70;;;;;;;20.61;100.00;97296.69;5090530;28;20430;-73
2023/08/19 06:08:16;;;;;;;3.95;2.03;;;;;;;20.70;100.00;97297.50;5073002;28;20764;-73
2023/08/19 06:10:44;;;;;;;2.55;1.70;;;;;;;20.80;100.00;97301.75;5090405;28;20402;-73
2023/08/19 06:13:10;;;;;;;2.00;1.80;;;;;;;20.89;100.00;97293.69;5090486;28;20404;-73
2023/08/19 06:15:37;;;;;;;2.53;1.90;;;;;;;20.98;100.00;97299.81;5090644;28;20485;-73
2023/08/19 06:18:04;;;;;;;2.00;1.80;;;;;;;21.05;100.00;97306.28;5090577;28;20911;-73
2023/08/19 06:20:31;;;;;;;2.83;1.80;;;;;;;21.12;100.00;97303.13;5090207;28;20406;-73
2023/08/19 06:22:57;;;;;;;3.80;1.90;;;;;;;21.17;100.00;97305.66;5090315;28;20433;-73
2023/08/19 06:25:24;;;;;;;3.58;1.80;;;;;;;21.21;100.00;97309.28;5090336;28;20401;-73
2023/08/19 06:27:50;;;;;;;3.45;2.20;;;;;;;21.26;100.00;97311.81;5090138;28;20481;-73
2023/08/19 06:30:16;;;;;;;4.47;2.08;;;;;;;21.30;100.00;97318.13;5090225;28;20402;-73
2023/08/19 06:32:44;;;;;;;3.50;2.20;;;;;;;21.36;100.00;97310.66;5090409;28;20459;-72
2023/08/19 06:35:12;;;;;;;3.55;1.85;;;;;;;21.41;100.00;97318.59;5090228;28;20413;-73
2023/08/19 06:37:42;;;;;;;3.77;2.20;;;;;;;21.48;100.00;97316.19;5090209;28;20459;-73
2023/08/19 06:40:12;;;;;;;2.40;2.15;;;;;;;21.54;100.00;97317.56;5092832;28;20907;-73
2023/08/19 06:42:41;;;;;;;3.92;2.20;;;;;;;21.61;100.00;97323.25;5094014;28;20497;-73
2023/08/19 06:45:09;;;;;;;2.57;2.20;;;;;;;21.67;100.00;97321.94;5094219;28;20401;-72
2023/08/19 06:47:38;;;;;;;4.10;2.33;;;;;;;21.74;100.00;97324.94;5094320;28;20475;-72
2023/08/19 06:50:08;;;;;;;4.63;2.10;;;;;;;21.81;100.00;97329.81;5092724;28;20801;-73
2023/08/19 06:52:34;;;;;;;3.90;2.50;;;;;;;21.86;100.00;97330.44;5093935;28;20394;-73
2023/08/19 06:55:03;;;;;;;4.55;2.42;;;;;;;21.95;100.00;97330.38;5093956;28;20402;-73
2023/08/19 06:57:35;;;;;;;2.87;2.47;;;;;;;22.05;100.00;97327.31;5094128;28;20398;-73
2023/08/19 07:00:09;;;;;;;4.47;2.90;;;;;;;22.16;100.00;97331.25;5093694;28;20410;-73
2023/08/19 07:02:37;;;;;;;4.78;2.40;;;;;;;22.28;100.00;97330.50;5093800;28;20890;-73
2023/08/19 07:05:12;;;;;;;3.93;2.50;;;;;;;22.37;100.00;97329.34;5093844;28;20390;-73
2023/08/19 07:07:42;;;;;;;3.20;2.05;;;;;;;22.47;100.00;97321.97;5093932;28;20891;-73
2023/08/19 07:10:10;;;;;;;3.65;2.35;;;;;;;22.56;100.00;97328.06;5093809;28;20418;-73
2023/08/19 07:12:37;;;;;;;10.43;2.45;;;;;;;22.62;100.00;97322.19;5093709;28;20406;-72
2023/08/19 07:15:11;;;;;;;5.40;2.75;;;;;;;22.70;100.00;97339.41;5093766;28;20394;-73
2023/08/19 07:17:40;;;;;;;4.47;2.90;;;;;;;22.79;100.00;97332.03;5093767;28;20390;-73
2023/08/19 07:20:11;;;;;;;7.00;3.55;;;;;;;22.89;100.00;97333.53;5093490;28;20508;-73
2023/08/19 07:22:38;;;;;;;7.35;3.45;;;;;;;23.03;100.00;97334.03;5093670;28;20491;-72
2023/08/19 07:25:05;;;;;;;3.22;2.42;;;;;;;;;;5093528;28;20837;-73
2023/08/19 07:27:34;;;;;;;4.93;3.17;;;;;;;23.30;100.00;97344.25;5093567;28;20405;-73
2023/08/19 07:30:02;;;;;;;7.43;3.60;;;;;;;23.39;100.00;97349.56;5093325;28;20390;-72
2023/08/19 07:32:29;;;;;;;6.05;3.33;;;;;;;23.47;100.00;97354.88;5093396;28;20459;-73
2023/08/19 07:34:55;;;;;;;7.28;3.30;;;;;;;23.59;100.00;97350.66;5093254;28;20402;-73
2023/08/19 07:37:23;;;;;;;7.55;3.72;;;;;;;23.67;100.00;97352.47;5093255;28;20401;-73
2023/08/19 07:39:50;;;;;;;4.75;2.67;;;;;;;23.77;100.00;97360.09;5093269;28;20406;-72
2023/08/19 07:42:17;;;;;;;2.90;2.40;;;;;;;23.87;100.00;97356.97;5093279;28;20390;-72
2023/08/19 07:44:43;;;;;;;3.93;2.40;;;;;;;23.96;100.00;97354.16;5093339;28;20398;-73
2023/08/19 07:47:09;;;;;;;5.43;2.93;;;;;;;24.02;100.00;97353.59;5093253;28;20404;-73
2023/08/19 07:49:35;;;;;;;5.20;2.65;;;;;;;24.12;100.00;97358.56;5092931;28;20879;-73
2023/08/19 07:52:01;;;;;;;3.92;2.67;;;;;;;24.25;100.00;97365.53;5092354;28;20493;-73
2023/08/19 07:54:29;;;;;;;7.05;2.55;;;;;;;24.34;100.00;97360.03;5074797;28;20414;-73
2023/08/19 07:56:57;;;;;;;2.80;2.13;;;;;;;24.43;100.00;97363.38;5092800;28;20420;-73
2023/08/19 07:59:24;;;;;;;5.65;2.70;;;;;;;24.52;100.00;97365.94;5092746;28;20493;-73
2023/08/19 08:01:50;;;;;;;4.73;2.60;;;;;;;24.61;100.00;97372.00;5092655;28;20505;-73
2023/08/19 08:04:17;;;;;;;3.58;2.30;;;;;;;24.68;100.00;97375.72;5092859;28;20402;-73
2023/08/19 08:06:44;;;;;;;2.78;2.20;;;;;;;24.79;100.00;97373.31;5092849;28;20409;-73
2023/08/19 08:09:11;;;;;;;2.67;2.10;;;;;;;24.90;100.00;97371.72;5092580;28;20400;-73
2023/08/19 08:11:41;;;;;;;3.50;2.37;;;;;;;25.00;100.00;97373.16;5092853;28;20402;-73
2023/08/19 08:14:07;;;;;;;2.90;1.92;;;;;;;25.11;100.00;97373.47;5092706;28;20456;-73
2023/08/19 08:16:33;;;;;;;10.38;3.55;;;;;;;25.14;100.00;97373.53;5092606;28;20402;-73
2023/08/19 08:18:59;;;;;;;8.02;3.20;;;;;;;25.24;100.00;97361.44;5092371;28;20402;-73
2023/08/19 08:21:26;;;;;;;6.50;3.40;;;;;;;25.33;100.00;97371.00;5092325;28;20899;-73
2023/08/19 08:23:54;;;;;;;4.47;2.55;;;;;;;25.46;100.00;97368.97;5092413;28;20527;-73
2023/08/19 08:26:20;;;;;;;5.43;2.58;;;;;;;25.57;100.00;97370.03;5092304;28;20398;-73
2023/08/19 08:28:48;;;;;;;4.45;2.45;;;;;;;25.65;100.00;97369.09;5092518;28;20394;-73
2023/08/19 08:31:14;;;;;;;3.05;2.13;;;;;;;25.74;100.00;97375.16;5091989;28;20401;-73
2023/08/19 08:33:40;;;;;;;3.65;2.30;;;;;;;25.84;100.00;97373.84;5074084;28;20414;-73
2023/08/19 08:36:06;;;;;;;4.22;2.60;;;;;;;25.88;100.00;97366.56;5092163;28;20481;-73
2023/08/19 08:38:32;;;;;;;3.10;2.33;;;;;;;25.93;100.00;97369.03;5074066;28;20854;-73
2023/08/19 08:41:03;;;;;;;2.53;2.08;;;;;;;25.97;100.00;97367.19;5091769;28;20421;-73
2023/08/19 08:43:31;;;;;;;2.35;1.80;;;;;;;26.05;100.00;97362.72;5086170;28;20446;-73
2023/08/19 08:46:00;;;;;;;8.32;2.97;;;;;;;26.09;100.00;97361.66;5071836;28;20400;-72
2023/08/19 08:48:28;;;;;;;5.57;3.05;;;;;;;26.23;100.00;97360.41;5071816;28;20415;-72
2023/08/19 08:50:56;;;;;;;5.03;2.60;;;;;;;26.36;100.00;97359.97;5071488;28;20891;-73
2023/08/19 08:53:23;;;;;;;4.88;2.72;;;;;;;26.43;100.00;97359.34;5071751;28;20438;-72
2023/08/19 08:55:51;;;;;;;3.13;2.15;;;;;;;26.56;100.00;97355.34;5071396;28;20416;-72
2023/08/19 08:58:18;;;;;;;4.95;2.60;;;;;;;26.65;100.00;97355.16;5071415;28;20400;-72
2023/08/19 09:00:45;;;;;;;3.78;2.90;;;;;;;26.75;100.00;97354.59;5071239;28;20412;-73
2023/08/19 09:03:16;;;;;;;2.35;1.92;;;;;;;26.85;100.00;97364.88;5070291;28;20400;-73
2023/08/19 09:05:44;;;;;;;4.87;2.43;;;;;;;26.91;100.00;97361.53;5071266;28;20388;-73
2023/08/19 09:08:17;;;;;;;3.10;2.00;;;;;;;27.01;100.00;97362.91;5071310;28;20877;-73
2023/08/19 09:10:46;;;;;;;3.63;2.08;;;;;;;27.12;100.00;97361.19;5071105;28;20408;-73
2023/08/19 09:13:19;;;;;;;2.85;1.70;;;;;;;27.22;100.00;97357.88;5071198;28;20438;-73
2023/08/19 09:15:45;;;;;;;2.53;2.13;;;;;;;27.31;100.00;97355.72;5071104;28;20399;-73
2023/08/19 09:18:14;;;;;;;4.32;2.15;;;;;;;27.41;100.00;97362.50;5071097;28;20760;-72
2023/08/19 09:20:41;;;;;;;2.88;1.85;;;;;;;27.50;100.00;97359.53;5070850;28;20983;-73
2023/08/19 09:23:08;;;;;;;2.50;1.80;;;;;;;27.60;100.00;97367.91;5070775;28;20411;-73
2023/08/19 09:25:35;;;;;;;2.95;1.80;;;;;;;27.72;100.00;97361.50;5071118;28;20407;-73
2023/08/19 09:28:01;;;;;;;2.53;1.60;;;;;;;27.88;100.00;97362.16;5070891;28;20491;-73
2023/08/19 09:30:32;;;;;;;4.18;2.13;;;;;;;27.99;100.00;97354.16;5070728;28;20412;-73
2023/08/19 09:32:59;;;;;;;5.10;2.20;;;;;;;28.14;100.00;97358.66;5070916;28;20427;-73
2023/08/19 09:35:35;;;;;;;3.20;2.00;;;;;;;28.34;100.00;97356.66;5070860;28;20400;-72
2023/08/19 09:38:01;;;;;;;3.40;2.20;;;;;;;28.48;100.00;97362.31;5070786;28;20439;-72
2023/08/19 09:40:27;;;;;;;3.25;1.90;;;;;;;28.63;100.00;97358.63;5070545;28;20440;-72
2023/08/19 09:43:00;;;;;;;4.13;2.23;;;;;;;28.79;100.00;97363.91;5070582;28;21011;-73
2023/08/19 09:45:27;;;;;;;2.25;1.60;;;;;;;28.94;100.00;97359.41;5070607;28;20788;-73
2023/08/19 09:47:54;;;;;;;2.10;1.60;;;;;;;29.05;100.00;97363.03;5070625;28;20916;-73
2023/08/19 09:50:22;;;;;;;3.00;2.13;;;;;;;29.13;100.00;97365.47;5070600;28;20441;-73
2023/08/19 09:52:57;;;;;;;3.35;2.20;;;;;;;29.23;100.00;97372.22;5070418;28;20431;-73
2023/08/19 09:55:24;;;;;;;3.38;1.92;;;;;;;29.24;100.00;97371.81;5070350;28;20770;-73
2023/08/19 09:57:52;;;;;;;4.70;2.57;;;;;;;29.22;100.00;97360.53;5070451;28;20468;-73
2023/08/19 10:00:18;;;;;;;3.47;2.13;;;;;;;29.25;100.00;97378.06;5070331;28;20852;-73
2023/08/19 10:02:45;;;;;;;2.92;1.80;;;;;;;29.26;100.00;97364.06;5070325;28;20808;-73
2023/08/19 10:05:11;;;;;;;3.90;1.90;;;;;;;29.30;100.00;97358.66;5070309;28;20438;-73
2023/08/19 10:07:45;;;;;;;1.88;1.70;;;;;;;29.34;100.00;97364.13;5070521;28;20403;-73
2023/08/19 10:10:14;;;;;;;2.40;1.80;;;;;;;29.40;100.00;97363.44;5070284;28;20391;-73
2023/08/19 10:12:40;;;;;;;1.95;1.67;;;;;;;29.49;100.00;97361.19;5070233;28;20490;-73
2023/08/19 10:15:12;;;;;;;3.00;2.08;;;;;;;29.61;100.00;97363.66;5069958;28;20493;-73
2023/08/19 10:17:41;;;;;;;2.83;1.90;;;;;;;29.77;100.00;97362.63;5070409;28;20972;-73
2023/08/19 10:20:13;;;;;;;2.65;2.22;;;;;;;29.92;100.00;97365.06;5069945;28;20404;-73
2023/08/19 10:22:44;;;;;;;2.47;1.77;;;;;;;30.08;100.00;97366.78;5070244;28;20399;-73
2023/08/19 10:25:14;;;;;;;3.17;1.88;;;;;;;30.22;100.00;97370.41;5070200;28;20432;-73
2023/08/19 10:27:42;;;;;;;2.20;1.60;;;;;;;30.34;100.00;97370.09;5070179;28;20399;-73
2023/08/19 10:30:28;;;;;;;3.50;2.23;;;;;;;30.45;97.56;97366.66;5069977;28;20482;-73
2023/08/19 10:32:54;;;;;;;5.45;2.50;;;;;;;30.47;96.37;97367.03;5070040;28;20410;-73
2023/08/19 10:35:20;;;;;;;3.92;2.20;;;;;;;30.38;91.68;97368.16;5070161;28;20920;-73
2023/08/19 10:37:51;;;;;;;3.13;2.30;;;;;;;30.37;91.87;97369.31;5070214;28;20404;-73
2023/08/19 10:40:21;;;;;;;3.13;2.20;;;;;;;30.33;92.12;97367.75;5069943;28;20422;-72
2023/08/19 10:42:57;;;;;;;3.42;2.40;;;;;;;30.31;91.94;97365.38;5069860;28;20407;-73
2023/08/19 10:45:30;;;;;;;8.00;3.20;;;;;;;30.27;88.56;97361.88;5070017;28;20427;-72
2023/08/19 10:47:56;;;;;;;3.60;2.42;;;;;;;30.32;88.89;97366.19;5087921;28;20398;-73
2023/08/19 10:50:24;;;;;;;3.47;2.30;;;;;;;30.40;89.40;97365.06;5090033;28;20397;-72
2023/08/19 10:52:57;;;;;;;3.83;2.20;;;;;;;30.47;89.47;97359.63;5089989;28;20481;-72
2023/08/19 10:55:25;;;;;;;2.55;1.95;;;;;;;30.55;90.11;97363.22;5090029;28;20891;-72
2023/08/19 10:57:52;;;;;;;5.70;2.53;;;;;;;30.60;89.23;97362.88;5090071;28;20402;-73
2023/08/19 11:00:23;;;;;;;2.60;2.28;;;;;;;30.72;89.76;97357.84;5089770;28;20510;-72
2023/08/19 11:02:50;;;;;;;3.00;2.20;;;;;;;30.81;90.28;97360.25;5089989;28;20497;-72
2023/08/19 11:05:25;;;;;;;2.70;1.95;;;;;;;30.90;90.43;97363.38;5089941;28;20399;-72
2023/08/19 11:07:51;;;;;;;2.78;2.20;;;;;;;30.98;90.31;97355.97;5089696;28;20430;-73
2023/08/19 11:10:17;;;;;;;2.33;2.00;;;;;;;31.04;90.64;97360.72;5089180;28;20964;-73
2023/08/19 11:12:48;;;;;;;2.78;1.95;;;;;;;31.22;91.09;97357.25;5089894;28;20402;-72
2023/08/19 11:15:21;;;;;;;2.90;1.90;;;;;;;31.45;91.28;97363.19;5089958;28;20390;-73
2023/08/19 11:17:48;;;;;;;3.45;1.88;;;;;;;31.68;90.95;97360.09;5090002;28;20409;-73
2023/08/19 11:20:15;;;;;;;6.80;3.10;;;;;;;31.85;86.78;97362.88;5089875;28;20410;-73
2023/08/19 11:22:42;;;;;;;2.83;2.40;;;;;;;32.04;85.31;97355.41;5089812;28;20756;-73
2023/08/19 11:25:09;;;;;;;3.47;2.10;;;;;;;32.21;84.94;97354.66;5089783;28;20449;-73
2023/08/19 11:27:35;;;;;;;2.85;2.00;;;;;;;32.37;84.57;97351.50;5093102;28;20420;-73